sensor_id;sensor_type;location;lat;lon;timestamp;temperature;humidity
28863;DHT22;15994;51.796;13.006;2024-01-15T00:00:19;2.20;99.90
28863;DHT22;15994;51.796;13.006;2024-01-15T00:02:47;2.20;99.90
28863;DHT22;15994;51.796;13.006;2024-01-15T00:05:13;2.30;99.90
28863;DHT22;15994;51.796;13.006;2024-01-15T00:07:40;2.20;99.90
28863;DHT22;15994;51.796;13.006;2024-01-15T00:10:06;2.30;99.90
28863;DHT22;15994;51.796;13.006;2024-01-15T00:12:33;2.20;99.90
28863;DHT22;15994;51.796;13.006;2024-01-15T00:15:00;2.30;99.90
28863;DHT22;15994;51.796;13.006;2024-01-15T00:17:26;2.30;99.90
28863;DHT22;15994;51.796;13.006;2024-01-15T00:19:52;2.40;99.90
28863;DHT22;15994;51.796;13.006;2024-01-15T00:22:19;2.40;99.90
28863;DHT22;15994;51.796;13.006;2024-01-15T00:24:45;2.40;99.90
28863;DHT22;15994;51.796;13.006;2024-01-15T00:27:12;2.40;99.90
28863;DHT22;15994;51.796;13.006;2024-01-15T00:29:38;2.50;99.90
28863;DHT22;15994;51.796;13.006;2024-01-15T00:32:05;2.40;99.90
28863;DHT22;15994;51.796;13.006;2024-01-15T00:34:32;2.50;99.90
28863;DHT22;15994;51.796;13.006;2024-01-15T00:36:58;2.40;99.90
28863;DHT22;15994;51.796;13.006;2024-01-15T00:39:25;2.50;99.90
28863;DHT22;15994;51.796;13.006;2024-01-15T00:41:52;2.50;99.90
28863;DHT22;15994;51.796;13.006;2024-01-15T00:44:18;2.50;99.90
28863;DHT22;15994;51.796;13.006;2024-01-15T00:46:45;2.50;99.90
28863;DHT22;15994;51.796;13.006;2024-01-15T00:49:13;2.40;99.90
28863;DHT22;15994;51.796;13.006;2024-01-15T00:51:39;2.40;99.90
28863;DHT22;15994;51.796;13.006;2024-01-15T00:54:06;2.40;99.90
28863;DHT22;15994;51.796;13.006;2024-01-15T00:56:33;2.40;99.90
28863;DHT22;15994;51.796;13.006;2024-01-15T00:59:00;2.30;99.90
28863;DHT22;15994;51.796;13.006;2024-01-15T01:01:27;2.30;99.90
28863;DHT22;15994;51.796;13.006;2024-01-15T01:03:53;2.30;99.90
28863;DHT22;15994;51.796;13.006;2024-01-15T01:06:20;2.20;99.90
28863;DHT22;15994;51.796;13.006;2024-01-15T01:08:46;2.20;99.90
28863;DHT22;15994;51.796;13.006;2024-01-15T01:11:14;2.20;99.90
28863;DHT22;15994;51.796;13.006;2024-01-15T01:13:40;2.20;99.90
28863;DHT22;15994;51.796;13.006;2024-01-15T01:16:07;2.20;99.90
28863;DHT22;15994;51.796;13.006;2024-01-15T01:18:33;2.30;99.90
28863;DHT22;15994;51.796;13.006;2024-01-15T01:21:00;2.30;99.90
28863;DHT22;15994;51.796;13.006;2024-01-15T01:23:26;2.30;99.90
28863;DHT22;15994;51.796;13.006;2024-01-15T01:25:53;2.30;99.90
28863;DHT22;15994;51.796;13.006;2024-01-15T01:28:19;2.30;99.90
28863;DHT22;15994;51.796;13.006;2024-01-15T01:30:46;2.20;99.90
28863;DHT22;15994;51.796;13.006;2024-01-15T01:33:12;2.20;99.90
28863;DHT22;15994;51.796;13.006;2024-01-15T01:35:38;2.30;99.90
28863;DHT22;15994;51.796;13.006;2024-01-15T01:38:05;2.30;99.90
28863;DHT22;15994;51.796;13.006;2024-01-15T01:40:32;2.30;99.90
28863;DHT22;15994;51.796;13.006;2024-01-15T01:42:58;2.30;99.90
28863;DHT22;15994;51.796;13.006;2024-01-15T01:45:24;2.30;99.90
28863;DHT22;15994;51.796;13.006;2024-01-15T01:47:51;2.30;99.90
28863;DHT22;15994;51.796;13.006;2024-01-15T01:50:18;2.20;99.90
28863;DHT22;15994;51.796;13.006;2024-01-15T01:52:45;2.20;99.90
28863;DHT22;15994;51.796;13.006;2024-01-15T01:55:11;2.20;99.90
28863;DHT22;15994;51.796;13.006;2024-01-15T01:57:39;2.20;99.90
28863;DHT22;15994;51.796;13.006;2024-01-15T02:00:06;2.10;99.90
28863;DHT22;15994;51.796;13.006;2024-01-15T02:02:33;2.10;99.90
28863;DHT22;15994;51.796;13.006;2024-01-15T02:05:00;2.10;99.90
28863;DHT22;15994;51.796;13.006;2024-01-15T02:07:26;2.10;99.90
28863;DHT22;15994;51.796;13.006;2024-01-15T02:09:53;2.10;99.90
28863;DHT22;15994;51.796;13.006;2024-01-15T02:12:20;2.10;99.90
28863;DHT22;15994;51.796;13.006;2024-01-15T02:14:46;2.10;99.90
28863;DHT22;15994;51.796;13.006;2024-01-15T02:17:12;2.00;99.90
28863;DHT22;15994;51.796;13.006;2024-01-15T02:19:39;2.10;99.90
28863;DHT22;15994;51.796;13.006;2024-01-15T02:22:06;2.10;99.90
28863;DHT22;15994;51.796;13.006;2024-01-15T02:24:32;2.10;99.90
28863;DHT22;15994;51.796;13.006;2024-01-15T02:26:59;2.10;99.90
28863;DHT22;15994;51.796;13.006;2024-01-15T02:29:26;2.10;99.90
28863;DHT22;15994;51.796;13.006;2024-01-15T02:31:52;2.10;99.90
28863;DHT22;15994;51.796;13.006;2024-01-15T02:34:19;2.00;99.90
28863;DHT22;15994;51.796;13.006;2024-01-15T02:36:45;2.00;99.90
28863;DHT22;15994;51.796;13.006;2024-01-15T02:39:12;2.00;99.90
28863;DHT22;15994;51.796;13.006;2024-01-15T02:41:38;2.00;99.90
28863;DHT22;15994;51.796;13.006;2024-01-15T02:44:05;2.00;99.90
28863;DHT22;15994;51.796;13.006;2024-01-15T02:46:31;2.00;99.90
28863;DHT22;15994;51.796;13.006;2024-01-15T02:48:58;1.90;99.90
28863;DHT22;15994;51.796;13.006;2024-01-15T02:51:24;2.00;99.90
28863;DHT22;15994;51.796;13.006;2024-01-15T02:53:51;1.90;99.90
28863;DHT22;15994;51.796;13.006;2024-01-15T02:56:18;1.90;99.90
28863;DHT22;15994;51.796;13.006;2024-01-15T02:58:44;2.00;99.90
28863;DHT22;15994;51.796;13.006;2024-01-15T03:01:11;1.90;99.90
28863;DHT22;15994;51.796;13.006;2024-01-15T03:03:39;1.90;99.90
28863;DHT22;15994;51.796;13.006;2024-01-15T03:06:05;1.80;99.90
28863;DHT22;15994;51.796;13.006;2024-01-15T03:08:32;1.70;99.90
28863;DHT22;15994;51.796;13.006;2024-01-15T03:11:00;1.60;99.90
28863;DHT22;15994;51.796;13.006;2024-01-15T03:13:27;1.60;99.90
28863;DHT22;15994;51.796;13.006;2024-01-15T03:15:53;1.70;99.90
28863;DHT22;15994;51.796;13.006;2024-01-15T03:18:20;1.80;99.90
28863;DHT22;15994;51.796;13.006;2024-01-15T03:20:46;1.80;99.90
28863;DHT22;15994;51.796;13.006;2024-01-15T03:23:12;1.90;99.90
28863;DHT22;15994;51.796;13.006;2024-01-15T03:25:39;1.90;99.90
28863;DHT22;15994;51.796;13.006;2024-01-15T03:28:05;1.80;99.90
28863;DHT22;15994;51.796;13.006;2024-01-15T03:30:32;1.80;99.90
28863;DHT22;15994;51.796;13.006;2024-01-15T03:32:58;1.80;99.90
28863;DHT22;15994;51.796;13.006;2024-01-15T03:35:25;1.80;99.90
28863;DHT22;15994;51.796;13.006;2024-01-15T03:37:54;1.90;99.90
28863;DHT22;15994;51.796;13.006;2024-01-15T03:40:21;1.90;99.90
28863;DHT22;15994;51.796;13.006;2024-01-15T03:42:47;1.90;99.90
28863;DHT22;15994;51.796;13.006;2024-01-15T03:45:14;1.90;99.90
28863;DHT22;15994;51.796;13.006;2024-01-15T03:47:40;1.90;99.90
28863;DHT22;15994;51.796;13.006;2024-01-15T03:50:07;1.90;99.90
28863;DHT22;15994;51.796;13.006;2024-01-15T03:52:33;1.90;99.90
28863;DHT22;15994;51.796;13.006;2024-01-15T03:55:00;1.90;99.90
28863;DHT22;15994;51.796;13.006;2024-01-15T03:57:26;1.90;99.90
28863;DHT22;15994;51.796;13.006;2024-01-15T03:59:53;1.90;99.90
28863;DHT22;15994;51.796;13.006;2024-01-15T04:02:26;1.90;99.90
28863;DHT22;15994;51.796;13.006;2024-01-15T04:04:53;1.90;99.90
28863;DHT22;15994;51.796;13.006;2024-01-15T04:07:19;1.90;99.90
28863;DHT22;15994;51.796;13.006;2024-01-15T04:09:46;2.00;99.90
28863;DHT22;15994;51.796;13.006;2024-01-15T04:12:12;1.90;99.90
28863;DHT22;15994;51.796;13.006;2024-01-15T04:14:39;1.90;99.90
28863;DHT22;15994;51.796;13.006;2024-01-15T04:17:05;1.90;99.90
28863;DHT22;15994;51.796;13.006;2024-01-15T04:19:31;1.90;99.90
28863;DHT22;15994;51.796;13.006;2024-01-15T04:21:58;2.00;99.90
28863;DHT22;15994;51.796;13.006;2024-01-15T04:24:24;1.90;99.90
28863;DHT22;15994;51.796;13.006;2024-01-15T04:26:51;2.00;99.90
28863;DHT22;15994;51.796;13.006;2024-01-15T04:29:17;2.00;99.90
28863;DHT22;15994;51.796;13.006;2024-01-15T04:31:44;2.10;99.90
28863;DHT22;15994;51.796;13.006;2024-01-15T04:34:10;2.10;99.90
28863;DHT22;15994;51.796;13.006;2024-01-15T04:36:40;2.00;99.90
28863;DHT22;15994;51.796;13.006;2024-01-15T04:39:07;2.10;99.90
28863;DHT22;15994;51.796;13.006;2024-01-15T04:41:36;2.10;99.90
28863;DHT22;15994;51.796;13.006;2024-01-15T04:44:03;2.10;99.90
28863;DHT22;15994;51.796;13.006;2024-01-15T04:46:30;2.10;99.90
28863;DHT22;15994;51.796;13.006;2024-01-15T04:48:58;2.10;99.90
28863;DHT22;15994;51.796;13.006;2024-01-15T04:51:25;2.10;99.90
28863;DHT22;15994;51.796;13.006;2024-01-15T04:53:51;2.10;99.90
28863;DHT22;15994;51.796;13.006;2024-01-15T04:56:17;2.20;99.90
28863;DHT22;15994;51.796;13.006;2024-01-15T04:58:44;2.20;99.90
28863;DHT22;15994;51.796;13.006;2024-01-15T05:01:11;2.10;99.90
28863;DHT22;15994;51.796;13.006;2024-01-15T05:03:37;2.10;99.90
28863;DHT22;15994;51.796;13.006;2024-01-15T05:06:16;2.00;99.90
28863;DHT22;15994;51.796;13.006;2024-01-15T05:08:43;1.90;99.90
28863;DHT22;15994;51.796;13.006;2024-01-15T05:11:09;1.90;99.90
28863;DHT22;15994;51.796;13.006;2024-01-15T05:13:36;2.00;99.90
28863;DHT22;15994;51.796;13.006;2024-01-15T05:16:02;1.90;99.90
28863;DHT22;15994;51.796;13.006;2024-01-15T05:18:29;1.90;99.90
28863;DHT22;15994;51.796;13.006;2024-01-15T05:20:55;2.00;99.90
28863;DHT22;15994;51.796;13.006;2024-01-15T05:23:22;2.10;99.90
28863;DHT22;15994;51.796;13.006;2024-01-15T05:25:48;1.90;99.90
28863;DHT22;15994;51.796;13.006;2024-01-15T05:28:15;2.00;99.90
28863;DHT22;15994;51.796;13.006;2024-01-15T05:30:42;1.90;99.90
28863;DHT22;15994;51.796;13.006;2024-01-15T05:33:08;1.90;99.90
28863;DHT22;15994;51.796;13.006;2024-01-15T05:35:35;1.90;99.90
28863;DHT22;15994;51.796;13.006;2024-01-15T05:38:01;1.80;99.90
28863;DHT22;15994;51.796;13.006;2024-01-15T05:40:28;1.80;99.90
28863;DHT22;15994;51.796;13.006;2024-01-15T05:42:54;1.90;99.90
28863;DHT22;15994;51.796;13.006;2024-01-15T05:45:21;1.90;99.90
28863;DHT22;15994;51.796;13.006;2024-01-15T05:47:47;2.00;99.90
28863;DHT22;15994;51.796;13.006;2024-01-15T05:50:14;2.00;99.90
28863;DHT22;15994;51.796;13.006;2024-01-15T05:52:41;2.00;99.90
28863;DHT22;15994;51.796;13.006;2024-01-15T05:55:07;2.00;99.90
28863;DHT22;15994;51.796;13.006;2024-01-15T05:57:35;2.00;99.90
28863;DHT22;15994;51.796;13.006;2024-01-15T06:00:01;2.00;99.90
28863;DHT22;15994;51.796;13.006;2024-01-15T06:02:28;2.00;99.90
28863;DHT22;15994;51.796;13.006;2024-01-15T06:04:55;2.00;99.90
28863;DHT22;15994;51.796;13.006;2024-01-15T06:07:22;2.00;99.90
28863;DHT22;15994;51.796;13.006;2024-01-15T06:09:49;2.10;99.90
28863;DHT22;15994;51.796;13.006;2024-01-15T06:12:15;2.10;99.90
28863;DHT22;15994;51.796;13.006;2024-01-15T06:14:42;2.10;99.90
28863;DHT22;15994;51.796;13.006;2024-01-15T06:17:08;2.10;99.90
28863;DHT22;15994;51.796;13.006;2024-01-15T06:19:35;2.20;99.90
28863;DHT22;15994;51.796;13.006;2024-01-15T06:22:01;2.30;99.90
28863;DHT22;15994;51.796;13.006;2024-01-15T06:24:28;2.30;99.90
28863;DHT22;15994;51.796;13.006;2024-01-15T06:26:55;2.30;99.90
28863;DHT22;15994;51.796;13.006;2024-01-15T06:29:22;2.30;99.90
28863;DHT22;15994;51.796;13.006;2024-01-15T06:31:49;2.20;99.90
28863;DHT22;15994;51.796;13.006;2024-01-15T06:34:15;2.20;99.90
28863;DHT22;15994;51.796;13.006;2024-01-15T06:36:42;2.20;99.90
28863;DHT22;15994;51.796;13.006;2024-01-15T06:39:10;2.20;99.90
28863;DHT22;15994;51.796;13.006;2024-01-15T06:41:36;2.20;99.90
28863;DHT22;15994;51.796;13.006;2024-01-15T06:44:07;2.10;99.90
28863;DHT22;15994;51.796;13.006;2024-01-15T06:46:34;2.10;99.90
28863;DHT22;15994;51.796;13.006;2024-01-15T06:49:02;2.20;99.90
28863;DHT22;15994;51.796;13.006;2024-01-15T06:51:29;2.20;99.90
28863;DHT22;15994;51.796;13.006;2024-01-15T06:53:56;2.20;99.90
28863;DHT22;15994;51.796;13.006;2024-01-15T06:56:23;2.20;99.90
28863;DHT22;15994;51.796;13.006;2024-01-15T06:58:50;2.20;99.90
28863;DHT22;15994;51.796;13.006;2024-01-15T07:01:16;2.20;99.90
28863;DHT22;15994;51.796;13.006;2024-01-15T07:03:43;2.30;99.90
28863;DHT22;15994;51.796;13.006;2024-01-15T07:06:10;2.20;99.90
28863;DHT22;15994;51.796;13.006;2024-01-15T07:08:37;2.30;99.90
28863;DHT22;15994;51.796;13.006;2024-01-15T07:11:04;2.20;99.90
28863;DHT22;15994;51.796;13.006;2024-01-15T07:13:31;2.20;99.90
28863;DHT22;15994;51.796;13.006;2024-01-15T07:15:58;2.20;99.90
28863;DHT22;15994;51.796;13.006;2024-01-15T07:18:25;2.20;99.90
28863;DHT22;15994;51.796;13.006;2024-01-15T07:20:53;2.20;99.90
28863;DHT22;15994;51.796;13.006;2024-01-15T07:23:20;2.30;99.90
28863;DHT22;15994;51.796;13.006;2024-01-15T07:25:46;2.20;99.90
28863;DHT22;15994;51.796;13.006;2024-01-15T07:28:13;2.30;99.90
28863;DHT22;15994;51.796;13.006;2024-01-15T07:30:39;2.30;99.90
28863;DHT22;15994;51.796;13.006;2024-01-15T07:33:06;2.30;99.90
28863;DHT22;15994;51.796;13.006;2024-01-15T07:35:32;2.30;99.90
28863;DHT22;15994;51.796;13.006;2024-01-15T07:37:59;2.30;99.90
28863;DHT22;15994;51.796;13.006;2024-01-15T07:40:25;2.40;99.90
28863;DHT22;15994;51.796;13.006;2024-01-15T07:42:52;2.30;99.90
28863;DHT22;15994;51.796;13.006;2024-01-15T07:45:18;2.40;99.90
28863;DHT22;15994;51.796;13.006;2024-01-15T07:47:45;2.40;99.90
28863;DHT22;15994;51.796;13.006;2024-01-15T07:50:11;2.40;99.90
28863;DHT22;15994;51.796;13.006;2024-01-15T07:52:40;2.40;99.90
28863;DHT22;15994;51.796;13.006;2024-01-15T07:55:07;2.40;99.90
28863;DHT22;15994;51.796;13.006;2024-01-15T07:57:33;2.40;99.90
28863;DHT22;15994;51.796;13.006;2024-01-15T08:00:01;2.40;99.90
28863;DHT22;15994;51.796;13.006;2024-01-15T08:02:29;2.30;99.90
28863;DHT22;15994;51.796;13.006;2024-01-15T08:04:56;2.30;99.90
28863;DHT22;15994;51.796;13.006;2024-01-15T08:07:24;2.30;99.90
28863;DHT22;15994;51.796;13.006;2024-01-15T08:09:51;2.30;99.90
28863;DHT22;15994;51.796;13.006;2024-01-15T08:12:18;2.30;99.90
28863;DHT22;15994;51.796;13.006;2024-01-15T08:14:44;2.40;99.90
28863;DHT22;15994;51.796;13.006;2024-01-15T08:17:11;2.40;99.90
28863;DHT22;15994;51.796;13.006;2024-01-15T08:19:38;2.40;99.90
28863;DHT22;15994;51.796;13.006;2024-01-15T08:22:06;2.40;99.90
28863;DHT22;15994;51.796;13.006;2024-01-15T08:24:32;2.30;99.90
28863;DHT22;15994;51.796;13.006;2024-01-15T08:26:59;2.40;99.90
28863;DHT22;15994;51.796;13.006;2024-01-15T08:29:25;2.40;99.90
28863;DHT22;15994;51.796;13.006;2024-01-15T08:31:52;2.40;99.90
28863;DHT22;15994;51.796;13.006;2024-01-15T08:34:19;2.50;99.90
28863;DHT22;15994;51.796;13.006;2024-01-15T08:36:45;2.40;99.90
28863;DHT22;15994;51.796;13.006;2024-01-15T08:39:12;2.40;99.90
28863;DHT22;15994;51.796;13.006;2024-01-15T08:41:38;2.40;99.90
28863;DHT22;15994;51.796;13.006;2024-01-15T08:44:05;2.40;99.90
28863;DHT22;15994;51.796;13.006;2024-01-15T08:46:31;2.40;99.90
28863;DHT22;15994;51.796;13.006;2024-01-15T08:48:58;2.40;99.90
28863;DHT22;15994;51.796;13.006;2024-01-15T08:51:24;2.40;99.90
28863;DHT22;15994;51.796;13.006;2024-01-15T08:53:51;2.40;99.90
28863;DHT22;15994;51.796;13.006;2024-01-15T08:56:17;2.40;99.90
28863;DHT22;15994;51.796;13.006;2024-01-15T08:58:46;2.40;99.90
28863;DHT22;15994;51.796;13.006;2024-01-15T09:01:13;2.40;99.90
28863;DHT22;15994;51.796;13.006;2024-01-15T09:03:40;2.40;99.90
28863;DHT22;15994;51.796;13.006;2024-01-15T09:06:07;2.50;99.90
28863;DHT22;15994;51.796;13.006;2024-01-15T09:08:34;2.50;99.90
28863;DHT22;15994;51.796;13.006;2024-01-15T09:11:01;2.60;99.90
28863;DHT22;15994;51.796;13.006;2024-01-15T09:13:29;2.60;99.90
28863;DHT22;15994;51.796;13.006;2024-01-15T09:15:59;2.60;99.90
28863;DHT22;15994;51.796;13.006;2024-01-15T09:18:30;2.60;99.90
28863;DHT22;15994;51.796;13.006;2024-01-15T09:20:57;2.60;99.90
28863;DHT22;15994;51.796;13.006;2024-01-15T09:23:23;2.70;99.90
28863;DHT22;15994;51.796;13.006;2024-01-15T09:25:50;2.80;99.90
28863;DHT22;15994;51.796;13.006;2024-01-15T09:28:18;2.80;99.90
28863;DHT22;15994;51.796;13.006;2024-01-15T09:30:44;2.70;99.90
28863;DHT22;15994;51.796;13.006;2024-01-15T09:33:12;2.70;99.90
28863;DHT22;15994;51.796;13.006;2024-01-15T09:35:39;2.70;99.90
28863;DHT22;15994;51.796;13.006;2024-01-15T09:38:05;2.70;99.90
28863;DHT22;15994;51.796;13.006;2024-01-15T09:40:32;2.90;99.90
28863;DHT22;15994;51.796;13.006;2024-01-15T09:43:00;2.90;99.90
28863;DHT22;15994;51.796;13.006;2024-01-15T09:45:28;2.90;99.90
28863;DHT22;15994;51.796;13.006;2024-01-15T09:47:55;2.90;99.90
28863;DHT22;15994;51.796;13.006;2024-01-15T09:50:22;2.90;99.90
28863;DHT22;15994;51.796;13.006;2024-01-15T09:52:49;3.00;99.90
28863;DHT22;15994;51.796;13.006;2024-01-15T09:55:17;3.10;99.90
28863;DHT22;15994;51.796;13.006;2024-01-15T09:57:44;3.10;99.90
28863;DHT22;15994;51.796;13.006;2024-01-15T10:00:12;3.10;99.90
28863;DHT22;15994;51.796;13.006;2024-01-15T10:02:39;3.20;99.90
28863;DHT22;15994;51.796;13.006;2024-01-15T10:05:05;3.10;99.90
28863;DHT22;15994;51.796;13.006;2024-01-15T10:07:35;3.00;99.90
28863;DHT22;15994;51.796;13.006;2024-01-15T10:10:02;3.10;99.90
28863;DHT22;15994;51.796;13.006;2024-01-15T10:12:29;3.30;99.90
28863;DHT22;15994;51.796;13.006;2024-01-15T10:14:58;3.40;99.90
28863;DHT22;15994;51.796;13.006;2024-01-15T10:17:25;3.30;99.90
28863;DHT22;15994;51.796;13.006;2024-01-15T10:20:17;3.20;99.90
28863;DHT22;15994;51.796;13.006;2024-01-15T10:22:45;2.90;99.90
28863;DHT22;15994;51.796;13.006;2024-01-15T10:25:13;2.80;99.90
28863;DHT22;15994;51.796;13.006;2024-01-15T10:27:43;2.80;99.90
28863;DHT22;15994;51.796;13.006;2024-01-15T10:30:10;3.00;99.90
28863;DHT22;15994;51.796;13.006;2024-01-15T10:32:39;3.10;99.90
28863;DHT22;15994;51.796;13.006;2024-01-15T10:35:07;3.10;99.90
28863;DHT22;15994;51.796;13.006;2024-01-15T10:37:34;3.10;99.90
28863;DHT22;15994;51.796;13.006;2024-01-15T10:40:03;3.20;99.90
28863;DHT22;15994;51.796;13.006;2024-01-15T10:42:31;3.10;99.90
28863;DHT22;15994;51.796;13.006;2024-01-15T10:44:57;3.20;99.90
28863;DHT22;15994;51.796;13.006;2024-01-15T10:47:28;3.30;99.90
28863;DHT22;15994;51.796;13.006;2024-01-15T10:49:56;3.20;99.90
28863;DHT22;15994;51.796;13.006;2024-01-15T10:52:23;3.20;99.90
28863;DHT22;15994;51.796;13.006;2024-01-15T10:54:50;3.30;99.90
28863;DHT22;15994;51.796;13.006;2024-01-15T10:57:18;3.30;99.90
28863;DHT22;15994;51.796;13.006;2024-01-15T10:59:46;3.40;99.90
28863;DHT22;15994;51.796;13.006;2024-01-15T11:02:14;3.30;99.90
28863;DHT22;15994;51.796;13.006;2024-01-15T11:04:41;3.30;99.90
28863;DHT22;15994;51.796;13.006;2024-01-15T11:07:07;3.30;99.90
28863;DHT22;15994;51.796;13.006;2024-01-15T11:09:36;3.30;99.90
28863;DHT22;15994;51.796;13.006;2024-01-15T11:12:11;3.20;99.90
28863;DHT22;15994;51.796;13.006;2024-01-15T11:15:02;3.20;99.90
28863;DHT22;15994;51.796;13.006;2024-01-15T11:18:01;3.10;99.90
28863;DHT22;15994;51.796;13.006;2024-01-15T11:20:30;3.00;99.90
28863;DHT22;15994;51.796;13.006;2024-01-15T11:22:58;3.00;99.90
28863;DHT22;15994;51.796;13.006;2024-01-15T11:25:34;3.00;99.90
28863;DHT22;15994;51.796;13.006;2024-01-15T11:28:03;3.00;99.90
28863;DHT22;15994;51.796;13.006;2024-01-15T11:30:30;2.90;99.90
28863;DHT22;15994;51.796;13.006;2024-01-15T11:32:56;2.90;99.90
28863;DHT22;15994;51.796;13.006;2024-01-15T11:35:23;2.80;99.90
28863;DHT22;15994;51.796;13.006;2024-01-15T11:38:09;2.80;99.90
28863;DHT22;15994;51.796;13.006;2024-01-15T11:40:38;2.70;99.90
28863;DHT22;15994;51.796;13.006;2024-01-15T11:43:07;2.50;99.90
28863;DHT22;15994;51.796;13.006;2024-01-15T11:45:34;2.40;99.90
28863;DHT22;15994;51.796;13.006;2024-01-15T11:48:17;2.30;99.90
28863;DHT22;15994;51.796;13.006;2024-01-15T11:50:46;2.30;99.90
28863;DHT22;15994;51.796;13.006;2024-01-15T11:53:32;2.30;99.90
28863;DHT22;15994;51.796;13.006;2024-01-15T11:56:02;2.30;99.90
28863;DHT22;15994;51.796;13.006;2024-01-15T11:58:29;2.40;99.90
28863;DHT22;15994;51.796;13.006;2024-01-15T12:00:56;2.30;99.90
28863;DHT22;15994;51.796;13.006;2024-01-15T12:03:24;2.40;99.90
28863;DHT22;15994;51.796;13.006;2024-01-15T12:05:52;2.50;99.90
28863;DHT22;15994;51.796;13.006;2024-01-15T12:08:23;2.50;99.90
28863;DHT22;15994;51.796;13.006;2024-01-15T12:10:50;2.40;99.90
28863;DHT22;15994;51.796;13.006;2024-01-15T12:13:17;2.30;99.90
28863;DHT22;15994;51.796;13.006;2024-01-15T12:15:45;2.40;99.90
28863;DHT22;15994;51.796;13.006;2024-01-15T12:18:16;2.30;99.90
28863;DHT22;15994;51.796;13.006;2024-01-15T12:20:44;2.30;99.90
28863;DHT22;15994;51.796;13.006;2024-01-15T12:23:12;2.20;99.90
28863;DHT22;15994;51.796;13.006;2024-01-15T12:25:39;2.30;99.90
28863;DHT22;15994;51.796;13.006;2024-01-15T12:28:07;2.40;99.90
28863;DHT22;15994;51.796;13.006;2024-01-15T12:30:35;2.40;99.90
28863;DHT22;15994;51.796;13.006;2024-01-15T12:33:04;2.40;99.90
28863;DHT22;15994;51.796;13.006;2024-01-15T12:35:30;2.40;99.90
28863;DHT22;15994;51.796;13.006;2024-01-15T12:41:22;2.40;99.90
28863;DHT22;15994;51.796;13.006;2024-01-15T12:43:55;2.40;99.90
28863;DHT22;15994;51.796;13.006;2024-01-15T12:46:21;2.50;99.90
28863;DHT22;15994;51.796;13.006;2024-01-15T12:48:51;2.60;99.90
28863;DHT22;15994;51.796;13.006;2024-01-15T12:51:25;2.50;99.90
28863;DHT22;15994;51.796;13.006;2024-01-15T12:53:52;2.60;99.90
28863;DHT22;15994;51.796;13.006;2024-01-15T12:56:19;2.70;99.90
28863;DHT22;15994;51.796;13.006;2024-01-15T12:58:47;2.60;99.90
28863;DHT22;15994;51.796;13.006;2024-01-15T13:01:14;2.60;99.90
28863;DHT22;15994;51.796;13.006;2024-01-15T13:03:40;2.70;99.90
28863;DHT22;15994;51.796;13.006;2024-01-15T13:06:07;2.70;99.90
28863;DHT22;15994;51.796;13.006;2024-01-15T13:08:33;2.70;99.90
28863;DHT22;15994;51.796;13.006;2024-01-15T13:11:00;2.80;99.90
28863;DHT22;15994;51.796;13.006;2024-01-15T13:13:27;2.90;99.90
28863;DHT22;15994;51.796;13.006;2024-01-15T13:15:54;2.90;99.90
28863;DHT22;15994;51.796;13.006;2024-01-15T13:18:20;3.00;99.90
28863;DHT22;15994;51.796;13.006;2024-01-15T13:20:47;3.00;99.90
28863;DHT22;15994;51.796;13.006;2024-01-15T13:23:14;3.10;99.90
28863;DHT22;15994;51.796;13.006;2024-01-15T13:25:40;3.10;99.90
28863;DHT22;15994;51.796;13.006;2024-01-15T13:28:07;3.20;99.90
28863;DHT22;15994;51.796;13.006;2024-01-15T13:30:34;3.20;99.90
28863;DHT22;15994;51.796;13.006;2024-01-15T13:33:00;3.30;99.90
28863;DHT22;15994;51.796;13.006;2024-01-15T13:35:29;3.30;99.90
28863;DHT22;15994;51.796;13.006;2024-01-15T13:37:56;3.30;99.90
28863;DHT22;15994;51.796;13.006;2024-01-15T13:40:22;3.20;99.90
28863;DHT22;15994;51.796;13.006;2024-01-15T13:42:50;3.20;99.90
28863;DHT22;15994;51.796;13.006;2024-01-15T13:45:17;3.10;99.90
28863;DHT22;15994;51.796;13.006;2024-01-15T13:47:46;3.10;99.90
28863;DHT22;15994;51.796;13.006;2024-01-15T13:50:12;3.20;99.90
28863;DHT22;15994;51.796;13.006;2024-01-15T13:52:39;3.20;99.90
28863;DHT22;15994;51.796;13.006;2024-01-15T13:55:05;3.20;99.90
28863;DHT22;15994;51.796;13.006;2024-01-15T13:57:34;3.20;99.90
28863;DHT22;15994;51.796;13.006;2024-01-15T14:00:00;3.20;99.90
28863;DHT22;15994;51.796;13.006;2024-01-15T14:02:27;3.20;99.90
28863;DHT22;15994;51.796;13.006;2024-01-15T14:04:54;3.20;99.90
28863;DHT22;15994;51.796;13.006;2024-01-15T14:07:20;3.20;99.90
28863;DHT22;15994;51.796;13.006;2024-01-15T14:09:47;3.30;99.90
28863;DHT22;15994;51.796;13.006;2024-01-15T14:12:13;3.20;99.90
28863;DHT22;15994;51.796;13.006;2024-01-15T14:14:40;3.20;99.90
28863;DHT22;15994;51.796;13.006;2024-01-15T14:17:07;3.20;99.90
28863;DHT22;15994;51.796;13.006;2024-01-15T14:19:34;3.20;99.90
28863;DHT22;15994;51.796;13.006;2024-01-15T14:22:00;3.20;99.90
28863;DHT22;15994;51.796;13.006;2024-01-15T14:24:27;3.20;99.90
28863;DHT22;15994;51.796;13.006;2024-01-15T14:26:53;3.30;99.90
28863;DHT22;15994;51.796;13.006;2024-01-15T14:29:20;3.30;99.90
28863;DHT22;15994;51.796;13.006;2024-01-15T14:31:49;3.20;99.90
28863;DHT22;15994;51.796;13.006;2024-01-15T14:34:16;3.30;99.90
28863;DHT22;15994;51.796;13.006;2024-01-15T14:36:43;3.30;99.90
28863;DHT22;15994;51.796;13.006;2024-01-15T14:39:11;3.30;99.90
28863;DHT22;15994;51.796;13.006;2024-01-15T14:41:37;3.30;99.90
28863;DHT22;15994;51.796;13.006;2024-01-15T14:44:04;3.30;99.90
28863;DHT22;15994;51.796;13.006;2024-01-15T14:46:31;3.30;99.90
28863;DHT22;15994;51.796;13.006;2024-01-15T14:48:57;3.20;99.90
28863;DHT22;15994;51.796;13.006;2024-01-15T14:51:24;3.20;99.90
28863;DHT22;15994;51.796;13.006;2024-01-15T14:53:50;3.30;99.90
28863;DHT22;15994;51.796;13.006;2024-01-15T14:56:17;3.30;99.90
28863;DHT22;15994;51.796;13.006;2024-01-15T14:58:44;3.20;99.90
28863;DHT22;15994;51.796;13.006;2024-01-15T15:01:10;3.20;99.90
28863;DHT22;15994;51.796;13.006;2024-01-15T15:03:38;3.10;99.90
28863;DHT22;15994;51.796;13.006;2024-01-15T15:06:05;3.20;99.90
28863;DHT22;15994;51.796;13.006;2024-01-15T15:08:33;3.10;99.90
28863;DHT22;15994;51.796;13.006;2024-01-15T15:11:00;3.10;99.90
28863;DHT22;15994;51.796;13.006;2024-01-15T15:13:27;3.10;99.90
28863;DHT22;15994;51.796;13.006;2024-01-15T15:15:54;3.10;99.90
28863;DHT22;15994;51.796;13.006;2024-01-15T15:18:23;3.10;99.90
28863;DHT22;15994;51.796;13.006;2024-01-15T15:20:51;3.10;99.90
28863;DHT22;15994;51.796;13.006;2024-01-15T15:23:18;3.10;99.90
28863;DHT22;15994;51.796;13.006;2024-01-15T15:25:44;3.00;99.90
28863;DHT22;15994;51.796;13.006;2024-01-15T15:28:11;3.00;99.90
28863;DHT22;15994;51.796;13.006;2024-01-15T15:30:38;3.00;99.90
28863;DHT22;15994;51.796;13.006;2024-01-15T15:33:04;2.90;99.90